sensor_id;sensor_type;location;lat;lon;timestamp;temperature;humidity
11536;DHT22;5824;49.336;8.652;2023-04-15T00:02:21;6.00;1.00
11536;DHT22;5824;49.336;8.652;2023-04-15T00:04:47;6.00;1.00
11536;DHT22;5824;49.336;8.652;2023-04-15T00:07:13;6.00;1.00
11536;DHT22;5824;49.336;8.652;2023-04-15T00:09:40;6.10;1.00
11536;DHT22;5824;49.336;8.652;2023-04-15T00:12:06;6.10;1.00
11536;DHT22;5824;49.336;8.652;2023-04-15T00:14:33;6.10;1.00
11536;DHT22;5824;49.336;8.652;2023-04-15T00:17:00;6.10;1.00
11536;DHT22;5824;49.336;8.652;2023-04-15T00:19:25;6.10;1.00
11536;DHT22;5824;49.336;8.652;2023-04-15T00:21:51;6.00;1.00
11536;DHT22;5824;49.336;8.652;2023-04-15T00:24:16;6.10;1.00
11536;DHT22;5824;49.336;8.652;2023-04-15T00:26:42;6.10;1.00
11536;DHT22;5824;49.336;8.652;2023-04-15T00:29:07;6.00;1.00
11536;DHT22;5824;49.336;8.652;2023-04-15T00:31:33;5.80;1.00
11536;DHT22;5824;49.336;8.652;2023-04-15T00:33:58;5.70;1.00
11536;DHT22;5824;49.336;8.652;2023-04-15T00:36:24;5.70;1.00
11536;DHT22;5824;49.336;8.652;2023-04-15T00:38:50;5.70;1.00
11536;DHT22;5824;49.336;8.652;2023-04-15T00:41:17;5.60;1.00
11536;DHT22;5824;49.336;8.652;2023-04-15T00:43:43;5.50;1.00
11536;DHT22;5824;49.336;8.652;2023-04-15T00:46:12;5.40;1.00
11536;DHT22;5824;49.336;8.652;2023-04-15T00:48:38;5.30;1.00
11536;DHT22;5824;49.336;8.652;2023-04-15T00:51:05;5.20;1.00
11536;DHT22;5824;49.336;8.652;2023-04-15T00:53:31;5.10;1.00
11536;DHT22;5824;49.336;8.652;2023-04-15T00:55:57;5.00;1.00
11536;DHT22;5824;49.336;8.652;2023-04-15T00:58:22;5.00;1.00
11536;DHT22;5824;49.336;8.652;2023-04-15T01:00:49;5.00;1.00
11536;DHT22;5824;49.336;8.652;2023-04-15T01:03:18;5.00;1.00
11536;DHT22;5824;49.336;8.652;2023-04-15T01:05:45;4.90;1.00
11536;DHT22;5824;49.336;8.652;2023-04-15T01:08:11;4.90;1.00
11536;DHT22;5824;49.336;8.652;2023-04-15T01:10:36;4.90;1.00
11536;DHT22;5824;49.336;8.652;2023-04-15T01:13:02;4.90;1.00
11536;DHT22;5824;49.336;8.652;2023-04-15T01:15:28;4.90;1.00
11536;DHT22;5824;49.336;8.652;2023-04-15T01:17:54;4.90;1.00
11536;DHT22;5824;49.336;8.652;2023-04-15T01:20:20;4.80;1.00
11536;DHT22;5824;49.336;8.652;2023-04-15T01:22:47;4.80;1.00
11536;DHT22;5824;49.336;8.652;2023-04-15T01:25:17;4.80;1.00
11536;DHT22;5824;49.336;8.652;2023-04-15T01:27:43;4.90;1.00
11536;DHT22;5824;49.336;8.652;2023-04-15T01:30:09;4.90;1.00
11536;DHT22;5824;49.336;8.652;2023-04-15T01:32:35;4.80;1.00
11536;DHT22;5824;49.336;8.652;2023-04-15T01:35:01;4.70;1.00
11536;DHT22;5824;49.336;8.652;2023-04-15T01:37:27;4.70;1.00
11536;DHT22;5824;49.336;8.652;2023-04-15T01:39:53;4.70;1.00
11536;DHT22;5824;49.336;8.652;2023-04-15T01:42:20;4.80;1.00
11536;DHT22;5824;49.336;8.652;2023-04-15T01:44:45;4.80;1.00
11536;DHT22;5824;49.336;8.652;2023-04-15T01:47:11;4.80;1.00
11536;DHT22;5824;49.336;8.652;2023-04-15T01:49:36;4.40;1.00
11536;DHT22;5824;49.336;8.652;2023-04-15T01:52:02;4.80;1.00
11536;DHT22;5824;49.336;8.652;2023-04-15T01:54:27;4.90;1.00
11536;DHT22;5824;49.336;8.652;2023-04-15T01:56:53;4.90;1.00
11536;DHT22;5824;49.336;8.652;2023-04-15T01:59:18;4.90;1.00
11536;DHT22;5824;49.336;8.652;2023-04-15T02:01:44;4.90;1.00
11536;DHT22;5824;49.336;8.652;2023-04-15T02:04:10;4.90;1.00
11536;DHT22;5824;49.336;8.652;2023-04-15T02:06:42;4.80;1.00
11536;DHT22;5824;49.336;8.652;2023-04-15T02:09:08;4.70;1.00
11536;DHT22;5824;49.336;8.652;2023-04-15T02:11:34;4.70;1.00
11536;DHT22;5824;49.336;8.652;2023-04-15T02:14:01;4.60;1.00
11536;DHT22;5824;49.336;8.652;2023-04-15T02:16:28;4.60;1.00
11536;DHT22;5824;49.336;8.652;2023-04-15T02:18:53;4.60;1.00
11536;DHT22;5824;49.336;8.652;2023-04-15T02:21:19;4.60;1.00
11536;DHT22;5824;49.336;8.652;2023-04-15T02:23:44;4.80;1.00
11536;DHT22;5824;49.336;8.652;2023-04-15T02:26:12;4.50;1.00
11536;DHT22;5824;49.336;8.652;2023-04-15T02:28:38;4.40;1.00
11536;DHT22;5824;49.336;8.652;2023-04-15T02:31:06;4.40;1.00
11536;DHT22;5824;49.336;8.652;2023-04-15T02:33:32;4.50;1.00
11536;DHT22;5824;49.336;8.652;2023-04-15T02:35:58;4.40;1.00
11536;DHT22;5824;49.336;8.652;2023-04-15T02:38:23;4.40;1.00
11536;DHT22;5824;49.336;8.652;2023-04-15T02:40:49;4.40;1.00
11536;DHT22;5824;49.336;8.652;2023-04-15T02:43:15;4.30;1.00
11536;DHT22;5824;49.336;8.652;2023-04-15T02:45:45;4.30;1.00
11536;DHT22;5824;49.336;8.652;2023-04-15T02:48:11;4.30;1.00
11536;DHT22;5824;49.336;8.652;2023-04-15T02:50:37;4.30;1.00
11536;DHT22;5824;49.336;8.652;2023-04-15T02:53:05;4.30;1.00
11536;DHT22;5824;49.336;8.652;2023-04-15T02:55:31;4.60;1.00
11536;DHT22;5824;49.336;8.652;2023-04-15T02:57:57;4.50;1.00
11536;DHT22;5824;49.336;8.652;2023-04-15T03:00:26;4.40;1.00
11536;DHT22;5824;49.336;8.652;2023-04-15T03:02:56;4.50;1.00
11536;DHT22;5824;49.336;8.652;2023-04-15T03:05:21;4.30;1.00
11536;DHT22;5824;49.336;8.652;2023-04-15T03:07:50;4.30;1.00
11536;DHT22;5824;49.336;8.652;2023-04-15T03:10:16;4.30;1.00
11536;DHT22;5824;49.336;8.652;2023-04-15T03:12:42;4.20;1.00
11536;DHT22;5824;49.336;8.652;2023-04-15T03:15:08;4.10;1.00
11536;DHT22;5824;49.336;8.652;2023-04-15T03:17:34;4.10;1.00
11536;DHT22;5824;49.336;8.652;2023-04-15T03:20:01;4.10;1.00
11536;DHT22;5824;49.336;8.652;2023-04-15T03:22:27;4.00;1.00
11536;DHT22;5824;49.336;8.652;2023-04-15T03:24:53;3.80;1.00
11536;DHT22;5824;49.336;8.652;2023-04-15T03:27:18;3.70;1.00
11536;DHT22;5824;49.336;8.652;2023-04-15T03:29:44;3.70;1.00
11536;DHT22;5824;49.336;8.652;2023-04-15T03:32:09;3.70;1.00
11536;DHT22;5824;49.336;8.652;2023-04-15T03:34:36;3.70;1.00
11536;DHT22;5824;49.336;8.652;2023-04-15T03:37:01;3.70;1.00
11536;DHT22;5824;49.336;8.652;2023-04-15T03:39:27;5.10;1.00
11536;DHT22;5824;49.336;8.652;2023-04-15T03:41:52;3.70;1.00
11536;DHT22;5824;49.336;8.652;2023-04-15T03:44:18;3.70;1.00
11536;DHT22;5824;49.336;8.652;2023-04-15T03:46:43;3.70;1.00
11536;DHT22;5824;49.336;8.652;2023-04-15T03:49:10;3.90;1.00
11536;DHT22;5824;49.336;8.652;2023-04-15T03:51:35;3.60;1.00
11536;DHT22;5824;49.336;8.652;2023-04-15T03:54:01;3.60;1.00
11536;DHT22;5824;49.336;8.652;2023-04-15T03:56:26;3.50;1.00
11536;DHT22;5824;49.336;8.652;2023-04-15T03:58:52;3.60;1.00
11536;DHT22;5824;49.336;8.652;2023-04-15T04:01:18;3.50;1.00
11536;DHT22;5824;49.336;8.652;2023-04-15T04:03:43;3.80;1.00
11536;DHT22;5824;49.336;8.652;2023-04-15T04:06:09;3.50;1.00
11536;DHT22;5824;49.336;8.652;2023-04-15T04:08:36;3.60;1.00
11536;DHT22;5824;49.336;8.652;2023-04-15T04:11:02;3.60;1.00
11536;DHT22;5824;49.336;8.652;2023-04-15T04:13:28;3.60;1.00
11536;DHT22;5824;49.336;8.652;2023-04-15T04:15:53;3.60;1.00
11536;DHT22;5824;49.336;8.652;2023-04-15T04:18:19;3.50;1.00
11536;DHT22;5824;49.336;8.652;2023-04-15T04:20:45;3.50;1.00
11536;DHT22;5824;49.336;8.652;2023-04-15T04:23:10;3.40;1.00
11536;DHT22;5824;49.336;8.652;2023-04-15T04:25:36;3.30;1.00
11536;DHT22;5824;49.336;8.652;2023-04-15T04:28:02;3.30;1.00
11536;DHT22;5824;49.336;8.652;2023-04-15T04:30:28;3.20;1.00
11536;DHT22;5824;49.336;8.652;2023-04-15T04:32:53;3.20;1.00
11536;DHT22;5824;49.336;8.652;2023-04-15T04:35:19;3.20;1.00
11536;DHT22;5824;49.336;8.652;2023-04-15T04:37:45;3.30;1.00
11536;DHT22;5824;49.336;8.652;2023-04-15T04:40:11;3.30;1.00
11536;DHT22;5824;49.336;8.652;2023-04-15T04:42:36;3.30;1.00
11536;DHT22;5824;49.336;8.652;2023-04-15T04:45:02;3.40;1.00
11536;DHT22;5824;49.336;8.652;2023-04-15T04:47:27;3.40;1.00
11536;DHT22;5824;49.336;8.652;2023-04-15T04:49:54;3.40;1.00
11536;DHT22;5824;49.336;8.652;2023-04-15T04:52:20;3.40;1.00
11536;DHT22;5824;49.336;8.652;2023-04-15T04:54:45;3.50;1.00
11536;DHT22;5824;49.336;8.652;2023-04-15T04:57:11;3.80;1.00
11536;DHT22;5824;49.336;8.652;2023-04-15T04:59:38;3.50;1.00
11536;DHT22;5824;49.336;8.652;2023-04-15T05:02:03;4.30;1.00
11536;DHT22;5824;49.336;8.652;2023-04-15T05:04:29;3.50;1.00
11536;DHT22;5824;49.336;8.652;2023-04-15T05:06:56;3.50;1.00
11536;DHT22;5824;49.336;8.652;2023-04-15T05:09:22;3.60;1.00
11536;DHT22;5824;49.336;8.652;2023-04-15T05:11:47;3.70;1.00
11536;DHT22;5824;49.336;8.652;2023-04-15T05:14:13;3.70;1.00
11536;DHT22;5824;49.336;8.652;2023-04-15T05:16:38;3.70;1.00
11536;DHT22;5824;49.336;8.652;2023-04-15T05:19:04;3.80;1.00
11536;DHT22;5824;49.336;8.652;2023-04-15T05:21:29;3.90;1.00
11536;DHT22;5824;49.336;8.652;2023-04-15T05:23:56;3.90;1.00
11536;DHT22;5824;49.336;8.652;2023-04-15T05:26:21;3.90;1.00
11536;DHT22;5824;49.336;8.652;2023-04-15T05:28:48;3.90;1.00
11536;DHT22;5824;49.336;8.652;2023-04-15T05:31:14;4.10;1.00
11536;DHT22;5824;49.336;8.652;2023-04-15T05:33:40;4.10;1.00
11536;DHT22;5824;49.336;8.652;2023-04-15T05:36:06;4.20;1.00
11536;DHT22;5824;49.336;8.652;2023-04-15T05:38:31;4.30;1.00
11536;DHT22;5824;49.336;8.652;2023-04-15T05:40:57;4.40;1.00
11536;DHT22;5824;49.336;8.652;2023-04-15T05:43:23;4.30;1.00
11536;DHT22;5824;49.336;8.652;2023-04-15T05:45:48;4.40;1.00
11536;DHT22;5824;49.336;8.652;2023-04-15T05:48:14;4.50;1.00
11536;DHT22;5824;49.336;8.652;2023-04-15T05:50:40;4.70;1.00
11536;DHT22;5824;49.336;8.652;2023-04-15T05:53:07;4.70;1.00
11536;DHT22;5824;49.336;8.652;2023-04-15T05:55:32;4.80;1.00
11536;DHT22;5824;49.336;8.652;2023-04-15T05:57:58;4.90;1.00
11536;DHT22;5824;49.336;8.652;2023-04-15T06:00:23;5.00;1.00
11536;DHT22;5824;49.336;8.652;2023-04-15T06:02:49;5.20;1.00
11536;DHT22;5824;49.336;8.652;2023-04-15T06:05:15;5.40;1.00
11536;DHT22;5824;49.336;8.652;2023-04-15T06:07:40;5.60;1.00
11536;DHT22;5824;49.336;8.652;2023-04-15T06:10:08;5.90;1.00
11536;DHT22;5824;49.336;8.652;2023-04-15T06:12:34;6.20;1.00
11536;DHT22;5824;49.336;8.652;2023-04-15T06:14:59;6.60;1.00
11536;DHT22;5824;49.336;8.652;2023-04-15T06:17:25;6.60;1.00
11536;DHT22;5824;49.336;8.652;2023-04-15T06:19:50;6.80;1.00
11536;DHT22;5824;49.336;8.652;2023-04-15T06:22:20;7.00;1.00
11536;DHT22;5824;49.336;8.652;2023-04-15T06:24:47;7.30;1.00
11536;DHT22;5824;49.336;8.652;2023-04-15T06:27:13;9.00;1.00
11536;DHT22;5824;49.336;8.652;2023-04-15T06:29:39;7.50;1.00
11536;DHT22;5824;49.336;8.652;2023-04-15T06:32:04;7.70;1.00
11536;DHT22;5824;49.336;8.652;2023-04-15T06:34:30;8.00;1.00
11536;DHT22;5824;49.336;8.652;2023-04-15T06:36:56;8.10;1.00
11536;DHT22;5824;49.336;8.652;2023-04-15T06:39:21;8.30;1.00
11536;DHT22;5824;49.336;8.652;2023-04-15T06:41:47;8.50;1.00
11536;DHT22;5824;49.336;8.652;2023-04-15T06:44:13;8.70;1.00
11536;DHT22;5824;49.336;8.652;2023-04-15T06:46:38;8.90;1.00
11536;DHT22;5824;49.336;8.652;2023-04-15T06:49:04;9.00;1.00
11536;DHT22;5824;49.336;8.652;2023-04-15T06:51:30;9.20;1.00
11536;DHT22;5824;49.336;8.652;2023-04-15T06:53:55;9.30;1.00
11536;DHT22;5824;49.336;8.652;2023-04-15T06:56:21;9.40;1.00
11536;DHT22;5824;49.336;8.652;2023-04-15T06:58:47;9.60;1.00
11536;DHT22;5824;49.336;8.652;2023-04-15T07:01:13;9.70;1.00
11536;DHT22;5824;49.336;8.652;2023-04-15T07:03:38;9.80;1.00
11536;DHT22;5824;49.336;8.652;2023-04-15T07:06:04;10.00;1.00
11536;DHT22;5824;49.336;8.652;2023-04-15T07:08:32;10.20;1.00
11536;DHT22;5824;49.336;8.652;2023-04-15T07:10:58;10.20;1.00
11536;DHT22;5824;49.336;8.652;2023-04-15T07:13:24;10.40;1.00
11536;DHT22;5824;49.336;8.652;2023-04-15T07:15:50;10.70;1.00
11536;DHT22;5824;49.336;8.652;2023-04-15T07:18:15;11.00;1.00
11536;DHT22;5824;49.336;8.652;2023-04-15T07:20:41;11.40;1.00
11536;DHT22;5824;49.336;8.652;2023-04-15T07:23:07;11.80;1.00
11536;DHT22;5824;49.336;8.652;2023-04-15T07:25:33;12.00;1.00
11536;DHT22;5824;49.336;8.652;2023-04-15T07:27:58;12.10;1.00
11536;DHT22;5824;49.336;8.652;2023-04-15T07:30:24;12.30;1.00
11536;DHT22;5824;49.336;8.652;2023-04-15T07:32:50;12.60;1.00
11536;DHT22;5824;49.336;8.652;2023-04-15T07:35:15;13.10;1.00
11536;DHT22;5824;49.336;8.652;2023-04-15T07:37:41;13.70;1.00
11536;DHT22;5824;49.336;8.652;2023-04-15T07:40:08;13.90;1.00
11536;DHT22;5824;49.336;8.652;2023-04-15T07:42:34;14.10;1.00
11536;DHT22;5824;49.336;8.652;2023-04-15T07:45:00;14.20;1.00
11536;DHT22;5824;49.336;8.652;2023-04-15T07:47:25;14.40;1.00
11536;DHT22;5824;49.336;8.652;2023-04-15T07:49:51;14.60;1.00
11536;DHT22;5824;49.336;8.652;2023-04-15T07:52:17;14.70;1.00
11536;DHT22;5824;49.336;8.652;2023-04-15T07:54:43;14.90;1.00
11536;DHT22;5824;49.336;8.652;2023-04-15T07:57:09;14.90;1.00
11536;DHT22;5824;49.336;8.652;2023-04-15T07:59:34;15.00;1.00
11536;DHT22;5824;49.336;8.652;2023-04-15T08:02:01;15.00;1.00
11536;DHT22;5824;49.336;8.652;2023-04-15T08:04:27;15.20;1.00
11536;DHT22;5824;49.336;8.652;2023-04-15T08:06:53;15.10;1.00
11536;DHT22;5824;49.336;8.652;2023-04-15T08:09:19;15.40;1.00
11536;DHT22;5824;49.336;8.652;2023-04-15T08:11:47;15.80;1.00
11536;DHT22;5824;49.336;8.652;2023-04-15T08:14:13;16.30;1.00
11536;DHT22;5824;49.336;8.652;2023-04-15T08:16:38;18.00;1.00
11536;DHT22;5824;49.336;8.652;2023-04-15T08:19:04;18.70;1.00
11536;DHT22;5824;49.336;8.652;2023-04-15T08:21:30;20.20;1.00
11536;DHT22;5824;49.336;8.652;2023-04-15T08:23:55;21.30;1.00
11536;DHT22;5824;49.336;8.652;2023-04-15T08:26:21;21.80;1.00
11536;DHT22;5824;49.336;8.652;2023-04-15T08:28:48;21.30;1.00
11536;DHT22;5824;49.336;8.652;2023-04-15T08:31:14;21.10;1.00
11536;DHT22;5824;49.336;8.652;2023-04-15T08:33:40;21.50;1.00
11536;DHT22;5824;49.336;8.652;2023-04-15T08:36:06;21.80;1.00
11536;DHT22;5824;49.336;8.652;2023-04-15T08:38:32;21.70;1.00
11536;DHT22;5824;49.336;8.652;2023-04-15T08:41:00;21.80;1.00
11536;DHT22;5824;49.336;8.652;2023-04-15T08:43:33;21.90;1.00
11536;DHT22;5824;49.336;8.652;2023-04-15T08:45:59;22.30;1.00
11536;DHT22;5824;49.336;8.652;2023-04-15T08:48:31;22.90;1.00
11536;DHT22;5824;49.336;8.652;2023-04-15T08:50:57;22.70;1.00
11536;DHT22;5824;49.336;8.652;2023-04-15T08:53:24;22.50;1.00
11536;DHT22;5824;49.336;8.652;2023-04-15T08:55:51;22.60;1.00
11536;DHT22;5824;49.336;8.652;2023-04-15T08:58:18;23.00;1.00
11536;DHT22;5824;49.336;8.652;2023-04-15T09:00:44;23.50;1.00
11536;DHT22;5824;49.336;8.652;2023-04-15T09:10:54;25.30;1.00
11536;DHT22;5824;49.336;8.652;2023-04-15T09:13:20;25.10;1.00
11536;DHT22;5824;49.336;8.652;2023-04-15T09:39:03;23.80;1.00
11536;DHT22;5824;49.336;8.652;2023-04-15T09:46:58;21.20;1.00
11536;DHT22;5824;49.336;8.652;2023-04-15T09:52:00;20.80;1.00
11536;DHT22;5824;49.336;8.652;2023-04-15T09:54:36;21.00;1.00
11536;DHT22;5824;49.336;8.652;2023-04-15T10:15:15;22.20;1.00
11536;DHT22;5824;49.336;8.652;2023-04-15T10:17:43;22.30;1.00
11536;DHT22;5824;49.336;8.652;2023-04-15T10:25:14;23.80;1.00
11536;DHT22;5824;49.336;8.652;2023-04-15T10:35:28;24.40;1.00
11536;DHT22;5824;49.336;8.652;2023-04-15T10:37:55;24.40;1.00
11536;DHT22;5824;49.336;8.652;2023-04-15T10:40:25;24.00;1.00
11536;DHT22;5824;49.336;8.652;2023-04-15T10:42:59;24.10;1.00
11536;DHT22;5824;49.336;8.652;2023-04-15T10:45:36;24.50;1.00
11536;DHT22;5824;49.336;8.652;2023-04-15T10:48:03;25.90;1.00
11536;DHT22;5824;49.336;8.652;2023-04-15T10:50:31;26.10;1.00
11536;DHT22;5824;49.336;8.652;2023-04-15T10:52:57;25.90;1.00
11536;DHT22;5824;49.336;8.652;2023-04-15T10:55:25;24.60;1.00
11536;DHT22;5824;49.336;8.652;2023-04-15T10:57:52;23.60;1.00
11536;DHT22;5824;49.336;8.652;2023-04-15T11:00:19;22.80;1.00
11536;DHT22;5824;49.336;8.652;2023-04-15T11:02:58;22.30;1.00
11536;DHT22;5824;49.336;8.652;2023-04-15T11:08:15;22.10;1.00
11536;DHT22;5824;49.336;8.652;2023-04-15T11:13:16;22.30;1.00
11536;DHT22;5824;49.336;8.652;2023-04-15T11:15:46;22.80;1.00
11536;DHT22;5824;49.336;8.652;2023-04-15T11:18:25;23.30;1.00
11536;DHT22;5824;49.336;8.652;2023-04-15T11:20:54;23.80;1.00
11536;DHT22;5824;49.336;8.652;2023-04-15T11:23:42;24.70;1.00
11536;DHT22;5824;49.336;8.652;2023-04-15T11:26:11;25.10;1.00
11536;DHT22;5824;49.336;8.652;2023-04-15T11:28:39;25.00;1.00
11536;DHT22;5824;49.336;8.652;2023-04-15T11:31:07;24.40;1.00
11536;DHT22;5824;49.336;8.652;2023-04-15T11:33:35;23.60;1.00
11536;DHT22;5824;49.336;8.652;2023-04-15T11:36:00;23.00;1.00
11536;DHT22;5824;49.336;8.652;2023-04-15T11:38:26;22.40;1.00
11536;DHT22;5824;49.336;8.652;2023-04-15T11:40:52;21.90;1.00
11536;DHT22;5824;49.336;8.652;2023-04-15T11:43:20;21.60;1.00
11536;DHT22;5824;49.336;8.652;2023-04-15T11:45:55;21.50;1.00
11536;DHT22;5824;49.336;8.652;2023-04-15T11:48:23;20.70;1.00
11536;DHT22;5824;49.336;8.652;2023-04-15T11:53:19;20.20;1.00
11536;DHT22;5824;49.336;8.652;2023-04-15T11:55:52;19.70;1.00
11536;DHT22;5824;49.336;8.652;2023-04-15T11:58:22;19.60;1.00
11536;DHT22;5824;49.336;8.652;2023-04-15T12:00:58;19.60;1.00
11536;DHT22;5824;49.336;8.652;2023-04-15T12:06:15;19.20;1.00
11536;DHT22;5824;49.336;8.652;2023-04-15T12:11:38;19.50;1.00
11536;DHT22;5824;49.336;8.652;2023-04-15T12:14:08;19.80;1.00
11536;DHT22;5824;49.336;8.652;2023-04-15T12:16:35;20.10;1.00
11536;DHT22;5824;49.336;8.652;2023-04-15T12:19:05;20.80;1.00
11536;DHT22;5824;49.336;8.652;2023-04-15T12:21:36;21.20;1.00
11536;DHT22;5824;49.336;8.652;2023-04-15T12:24:04;21.30;1.00
11536;DHT22;5824;49.336;8.652;2023-04-15T12:29:02;19.90;1.00
11536;DHT22;5824;49.336;8.652;2023-04-15T12:31:28;19.60;1.00
11536;DHT22;5824;49.336;8.652;2023-04-15T12:33:55;19.30;1.00
11536;DHT22;5824;49.336;8.652;2023-04-15T12:36:21;18.80;1.00
11536;DHT22;5824;49.336;8.652;2023-04-15T12:38:47;18.60;1.00
11536;DHT22;5824;49.336;8.652;2023-04-15T12:41:12;18.70;1.00
11536;DHT22;5824;49.336;8.652;2023-04-15T12:43:38;19.60;1.00
11536;DHT22;5824;49.336;8.652;2023-04-15T12:46:03;18.30;1.00
11536;DHT22;5824;49.336;8.652;2023-04-15T12:48:29;18.10;1.00
11536;DHT22;5824;49.336;8.652;2023-04-15T12:50:55;18.00;1.00
11536;DHT22;5824;49.336;8.652;2023-04-15T12:53:20;17.70;1.00
11536;DHT22;5824;49.336;8.652;2023-04-15T12:55:46;17.40;1.00
11536;DHT22;5824;49.336;8.652;2023-04-15T12:58:13;17.00;1.00
11536;DHT22;5824;49.336;8.652;2023-04-15T13:00:39;17.00;1.00
11536;DHT22;5824;49.336;8.652;2023-04-15T13:03:04;16.80;1.00
11536;DHT22;5824;49.336;8.652;2023-04-15T13:05:30;17.10;1.00
11536;DHT22;5824;49.336;8.652;2023-04-15T13:07:55;16.80;1.00
11536;DHT22;5824;49.336;8.652;2023-04-15T13:10:21;16.80;1.00
11536;DHT22;5824;49.336;8.652;2023-04-15T13:12:48;16.90;1.00
11536;DHT22;5824;49.336;8.652;2023-04-15T13:15:21;17.00;1.00
11536;DHT22;5824;49.336;8.652;2023-04-15T13:17:47;17.00;1.00
11536;DHT22;5824;49.336;8.652;2023-04-15T13:20:13;17.00;1.00
11536;DHT22;5824;49.336;8.652;2023-04-15T13:22:38;17.00;1.00
11536;DHT22;5824;49.336;8.652;2023-04-15T13:25:05;16.90;1.00
11536;DHT22;5824;49.336;8.652;2023-04-15T13:27:31;16.90;1.00
11536;DHT22;5824;49.336;8.652;2023-04-15T13:29:57;16.90;1.00
11536;DHT22;5824;49.336;8.652;2023-04-15T13:32:24;16.80;1.00
11536;DHT22;5824;49.336;8.652;2023-04-15T13:34:49;16.80;1.00
11536;DHT22;5824;49.336;8.652;2023-04-15T13:37:15;16.70;1.00
11536;DHT22;5824;49.336;8.652;2023-04-15T13:39:40;16.50;1.00
11536;DHT22;5824;49.336;8.652;2023-04-15T13:42:06;16.50;1.00
11536;DHT22;5824;49.336;8.652;2023-04-15T13:44:31;16.40;1.00
11536;DHT22;5824;49.336;8.652;2023-04-15T13:46:57;16.50;1.00
11536;DHT22;5824;49.336;8.652;2023-04-15T13:49:22;16.60;1.00
11536;DHT22;5824;49.336;8.652;2023-04-15T13:51:49;16.70;1.00
11536;DHT22;5824;49.336;8.652;2023-04-15T13:54:15;17.00;1.00
11536;DHT22;5824;49.336;8.652;2023-04-15T13:56:40;17.10;1.00
11536;DHT22;5824;49.336;8.652;2023-04-15T13:59:06;17.10;1.00
11536;DHT22;5824;49.336;8.652;2023-04-15T14:01:33;17.00;1.00
11536;DHT22;5824;49.336;8.652;2023-04-15T14:03:59;17.00;1.00
11536;DHT22;5824;49.336;8.652;2023-04-15T14:06:25;16.90;1.00
11536;DHT22;5824;49.336;8.652;2023-04-15T14:08:51;16.70;1.00
11536;DHT22;5824;49.336;8.652;2023-04-15T14:11:17;16.60;1.00
11536;DHT22;5824;49.336;8.652;2023-04-15T14:13:43;16.40;1.00
11536;DHT22;5824;49.336;8.652;2023-04-15T14:16:08;16.50;1.00
11536;DHT22;5824;49.336;8.652;2023-04-15T14:18:34;16.60;1.00
11536;DHT22;5824;49.336;8.652;2023-04-15T14:20:59;16.70;1.00
11536;DHT22;5824;49.336;8.652;2023-04-15T14:23:25;16.80;1.00
11536;DHT22;5824;49.336;8.652;2023-04-15T14:25:50;17.00;1.00
11536;DHT22;5824;49.336;8.652;2023-04-15T14:28:17;17.20;1.00
11536;DHT22;5824;49.336;8.652;2023-04-15T14:30:42;17.30;1.00
11536;DHT22;5824;49.336;8.652;2023-04-15T14:33:08;17.50;1.00
11536;DHT22;5824;49.336;8.652;2023-04-15T14:35:33;17.60;1.00
11536;DHT22;5824;49.336;8.652;2023-04-15T14:37:59;17.10;1.00
11536;DHT22;5824;49.336;8.652;2023-04-15T14:40:25;17.10;1.00
11536;DHT22;5824;49.336;8.652;2023-04-15T14:42:50;16.80;1.00
11536;DHT22;5824;49.336;8.652;2023-04-15T14:45:16;16.60;1.00
11536;DHT22;5824;49.336;8.652;2023-04-15T14:47:42;16.30;1.00
11536;DHT22;5824;49.336;8.652;2023-04-15T14:50:08;16.30;1.00
11536;DHT22;5824;49.336;8.652;2023-04-15T14:52:34;16.10;1.00
11536;DHT22;5824;49.336;8.652;2023-04-15T14:55:07;16.10;1.00
11536;DHT22;5824;49.336;8.652;2023-04-15T14:57:35;15.90;1.00
11536;DHT22;5824;49.336;8.652;2023-04-15T15:00:02;15.90;1.00
11536;DHT22;5824;49.336;8.652;2023-04-15T15:02:28;15.80;1.00
11536;DHT22;5824;49.336;8.652;2023-04-15T15:04:53;15.60;1.00
11536;DHT22;5824;49.336;8.652;2023-04-15T15:07:19;15.60;1.00
11536;DHT22;5824;49.336;8.652;2023-04-15T15:09:44;15.40;1.00
11536;DHT22;5824;49.336;8.652;2023-04-15T15:12:10;15.30;1.00
11536;DHT22;5824;49.336;8.652;2023-04-15T15:14:36;15.40;1.00
11536;DHT22;5824;49.336;8.652;2023-04-15T15:17:01;15.40;1.00
11536;DHT22;5824;49.336;8.652;2023-04-15T15:19:27;15.30;1.00
11536;DHT22;5824;49.336;8.652;2023-04-15T15:21:52;15.20;1.00
11536;DHT22;5824;49.336;8.652;2023-04-15T15:24:18;14.80;1.00
11536;DHT22;5824;49.336;8.652;2023-04-15T15:26:43;14.70;1.00
11536;DHT22;5824;49.336;8.652;2023-04-15T15:29:09;14.60;1.00
11536;DHT22;5824;49.336;8.652;2023-04-15T15:31:34;14.50;1.00
11536;DHT22;5824;49.336;8.652;2023-04-15T15:34:00;14.40;1.00
11536;DHT22;5824;49.336;8.652;2023-04-15T15:36:26;14.30;1.00
11536;DHT22;5824;49.336;8.652;2023-04-15T15:38:52;14.10;1.00
11536;DHT22;5824;49.336;8.652;2023-04-15T15:41:17;13.90;1.00
11536;DHT22;5824;49.336;8.652;2023-04-15T15:43:43;13.90;1.00
11536;DHT22;5824;49.336;8.652;2023-04-15T15:46:08;13.70;1.00
11536;DHT22;5824;49.336;8.652;2023-04-15T15:48:34;13.60;1.00
11536;DHT22;5824;49.336;8.652;2023-04-15T15:51:00;13.60;1.00
11536;DHT22;5824;49.336;8.652;2023-04-15T15:53:25;13.50;1.00
11536;DHT22;5824;49.336;8.652;2023-04-15T15:55:51;13.50;1.00
11536;DHT22;5824;49.336;8.652;2023-04-15T15:58:16;13.50;1.00
11536;DHT22;5824;49.336;8.652;2023-04-15T16:00:42;13.50;1.00
11536;DHT22;5824;49.336;8.652;2023-04-15T16:03:08;13.40;1.00
11536;DHT22;5824;49.336;8.652;2023-04-15T16:05:34;13.50;1.00
11536;DHT22;5824;49.336;8.652;2023-04-15T16:08:00;13.40;1.00
11536;DHT22;5824;49.336;8.652;2023-04-15T16:10:26;13.40;1.00
11536;DHT22;5824;49.336;8.652;2023-04-15T16:12:51;13.20;1.00
11536;DHT22;5824;49.336;8.652;2023-04-15T16:15:17;13.10;1.00
11536;DHT22;5824;49.336;8.652;2023-04-15T16:17:43;12.60;1.00
11536;DHT22;5824;49.336;8.652;2023-04-15T16:20:08;12.50;1.00
11536;DHT22;5824;49.336;8.652;2023-04-15T16:22:34;12.70;1.00
11536;DHT22;5824;49.336;8.652;2023-04-15T16:25:00;12.70;1.00
11536;DHT22;5824;49.336;8.652;2023-04-15T16:27:26;12.70;1.00
11536;DHT22;5824;49.336;8.652;2023-04-15T16:29:52;12.70;1.00
11536;DHT22;5824;49.336;8.652;2023-04-15T16:32:18;12.70;1.00
11536;DHT22;5824;49.336;8.652;2023-04-15T16:34:43;12.80;1.00
11536;DHT22;5824;49.336;8.652;2023-04-15T16:37:09;12.90;1.00
11536;DHT22;5824;49.336;8.652;2023-04-15T16:39:35;12.90;1.00
11536;DHT22;5824;49.336;8.652;2023-04-15T16:42:01;12.70;1.00
11536;DHT22;5824;49.336;8.652;2023-04-15T16:44:27;12.60;1.00
11536;DHT22;5824;49.336;8.652;2023-04-15T16:46:52;12.60;1.00
11536;DHT22;5824;49.336;8.652;2023-04-15T16:49:18;12.60;1.00
11536;DHT22;5824;49.336;8.652;2023-04-15T16:56:56;12.60;1.00
11536;DHT22;5824;49.336;8.652;2023-04-15T16:59:23;12.20;1.00
11536;DHT22;5824;49.336;8.652;2023-04-15T17:01:49;12.50;1.00
11536;DHT22;5824;49.336;8.652;2023-04-15T17:04:15;12.40;1.00
11536;DHT22;5824;49.336;8.652;2023-04-15T17:06:40;12.40;1.00
11536;DHT22;5824;49.336;8.652;2023-04-15T17:09:06;12.30;1.00
11536;DHT22;5824;49.336;8.652;2023-04-15T17:11:31;12.30;1.00
11536;DHT22;5824;49.336;8.652;2023-04-15T17:13:57;12.10;1.00
11536;DHT22;5824;49.336;8.652;2023-04-15T17:16:22;12.10;1.00
11536;DHT22;5824;49.336;8.652;2023-04-15T17:18:48;12.00;1.00
11536;DHT22;5824;49.336;8.652;2023-04-15T17:21:15;12.00;1.00
11536;DHT22;5824;49.336;8.652;2023-04-15T17:23:41;11.90;1.00
11536;DHT22;5824;49.336;8.652;2023-04-15T17:31:17;11.80;1.00
11536;DHT22;5824;49.336;8.652;2023-04-15T17:33:43;11.80;1.00
11536;DHT22;5824;49.336;8.652;2023-04-15T17:36:09;11.80;1.00
11536;DHT22;5824;49.336;8.652;2023-04-15T17:38:34;11.70;1.00
11536;DHT22;5824;49.336;8.652;2023-04-15T17:41:00;11.60;1.00